sensor_id;sensor_type;location;lat;lon;timestamp;P1;durP1;ratioP1;P2;durP2;ratioP2
36923;SDS011;22841;50.252;18.688;2023-03-14T00:01:17;12.40;;;4.60;;
36923;SDS011;22841;50.252;18.688;2023-03-14T00:03:45;13.20;;;4.53;;
36923;SDS011;22841;50.252;18.688;2023-03-14T00:06:12;9.88;;;5.07;;
36923;SDS011;22841;50.252;18.688;2023-03-14T00:08:39;11.55;;;5.30;;
36923;SDS011;22841;50.252;18.688;2023-03-14T00:11:11;10.43;;;5.28;;
36923;SDS011;22841;50.252;18.688;2023-03-14T00:13:39;10.32;;;4.22;;
36923;SDS011;22841;50.252;18.688;2023-03-14T00:16:06;13.15;;;5.00;;
36923;SDS011;22841;50.252;18.688;2023-03-14T00:18:34;13.05;;;5.10;;
36923;SDS011;22841;50.252;18.688;2023-03-14T00:21:01;15.98;;;5.88;;
36923;SDS011;22841;50.252;18.688;2023-03-14T00:23:29;12.50;;;4.63;;
36923;SDS011;22841;50.252;18.688;2023-03-14T00:26:00;14.50;;;4.60;;
36923;SDS011;22841;50.252;18.688;2023-03-14T00:28:27;15.23;;;4.82;;
36923;SDS011;22841;50.252;18.688;2023-03-14T00:30:53;11.45;;;4.32;;
36923;SDS011;22841;50.252;18.688;2023-03-14T00:33:20;10.98;;;3.72;;
36923;SDS011;22841;50.252;18.688;2023-03-14T00:36:00;8.48;;;3.22;;
36923;SDS011;22841;50.252;18.688;2023-03-14T00:38:29;9.80;;;4.28;;
36923;SDS011;22841;50.252;18.688;2023-03-14T00:40:56;12.98;;;4.25;;
36923;SDS011;22841;50.252;18.688;2023-03-14T00:43:22;8.52;;;3.28;;
36923;SDS011;22841;50.252;18.688;2023-03-14T00:45:49;7.78;;;3.50;;
36923;SDS011;22841;50.252;18.688;2023-03-14T00:48:15;10.20;;;3.63;;
36923;SDS011;22841;50.252;18.688;2023-03-14T00:50:42;7.95;;;4.28;;
36923;SDS011;22841;50.252;18.688;2023-03-14T00:53:08;8.02;;;3.63;;
36923;SDS011;22841;50.252;18.688;2023-03-14T00:55:38;8.70;;;3.92;;
36923;SDS011;22841;50.252;18.688;2023-03-14T00:58:05;8.07;;;3.80;;
36923;SDS011;22841;50.252;18.688;2023-03-14T01:00:32;7.30;;;3.72;;
36923;SDS011;22841;50.252;18.688;2023-03-14T01:02:58;10.98;;;4.43;;
36923;SDS011;22841;50.252;18.688;2023-03-14T01:05:24;7.45;;;3.63;;
36923;SDS011;22841;50.252;18.688;2023-03-14T01:07:50;6.65;;;3.15;;
36923;SDS011;22841;50.252;18.688;2023-03-14T01:10:17;4.20;;;2.80;;
36923;SDS011;22841;50.252;18.688;2023-03-14T01:12:43;8.00;;;3.97;;
36923;SDS011;22841;50.252;18.688;2023-03-14T01:15:09;6.78;;;3.80;;
36923;SDS011;22841;50.252;18.688;2023-03-14T01:17:35;7.47;;;3.80;;
36923;SDS011;22841;50.252;18.688;2023-03-14T01:20:03;11.35;;;3.25;;
36923;SDS011;22841;50.252;18.688;2023-03-14T01:22:35;7.87;;;4.20;;
36923;SDS011;22841;50.252;18.688;2023-03-14T01:25:01;5.60;;;3.20;;
36923;SDS011;22841;50.252;18.688;2023-03-14T01:27:27;6.93;;;3.50;;
36923;SDS011;22841;50.252;18.688;2023-03-14T01:29:53;8.15;;;3.20;;
36923;SDS011;22841;50.252;18.688;2023-03-14T01:32:19;5.03;;;3.10;;
36923;SDS011;22841;50.252;18.688;2023-03-14T01:34:45;5.53;;;3.53;;
36923;SDS011;22841;50.252;18.688;2023-03-14T01:37:11;5.50;;;2.95;;
36923;SDS011;22841;50.252;18.688;2023-03-14T01:39:38;5.82;;;3.17;;
36923;SDS011;22841;50.252;18.688;2023-03-14T01:42:04;4.60;;;2.45;;
36923;SDS011;22841;50.252;18.688;2023-03-14T01:47:51;6.78;;;3.13;;
36923;SDS011;22841;50.252;18.688;2023-03-14T01:50:18;9.20;;;3.38;;
36923;SDS011;22841;50.252;18.688;2023-03-14T01:52:44;6.68;;;3.13;;
36923;SDS011;22841;50.252;18.688;2023-03-14T01:55:16;7.45;;;3.80;;
36923;SDS011;22841;50.252;18.688;2023-03-14T01:57:51;6.95;;;3.40;;
36923;SDS011;22841;50.252;18.688;2023-03-14T02:02:55;6.82;;;2.92;;
36923;SDS011;22841;50.252;18.688;2023-03-14T02:05:26;8.13;;;3.20;;
36923;SDS011;22841;50.252;18.688;2023-03-14T02:07:59;10.32;;;3.58;;
36923;SDS011;22841;50.252;18.688;2023-03-14T02:10:28;9.05;;;3.70;;
36923;SDS011;22841;50.252;18.688;2023-03-14T02:12:59;11.15;;;3.35;;
36923;SDS011;22841;50.252;18.688;2023-03-14T02:15:27;7.97;;;3.30;;
36923;SDS011;22841;50.252;18.688;2023-03-14T02:17:54;6.25;;;3.75;;
36923;SDS011;22841;50.252;18.688;2023-03-14T02:20:34;13.68;;;3.78;;
36923;SDS011;22841;50.252;18.688;2023-03-14T02:25:56;7.80;;;3.50;;
36923;SDS011;22841;50.252;18.688;2023-03-14T02:28:29;10.75;;;3.88;;
36923;SDS011;22841;50.252;18.688;2023-03-14T02:30:55;9.88;;;3.83;;
36923;SDS011;22841;50.252;18.688;2023-03-14T02:33:21;12.60;;;4.07;;
36923;SDS011;22841;50.252;18.688;2023-03-14T02:38:33;7.25;;;3.95;;
36923;SDS011;22841;50.252;18.688;2023-03-14T02:41:06;6.60;;;3.70;;
36923;SDS011;22841;50.252;18.688;2023-03-14T02:43:33;10.55;;;4.53;;
36923;SDS011;22841;50.252;18.688;2023-03-14T02:45:59;11.55;;;4.28;;
36923;SDS011;22841;50.252;18.688;2023-03-14T02:48:34;11.43;;;4.47;;
36923;SDS011;22841;50.252;18.688;2023-03-14T02:51:05;7.28;;;3.70;;
36923;SDS011;22841;50.252;18.688;2023-03-14T02:53:32;11.60;;;4.40;;
36923;SDS011;22841;50.252;18.688;2023-03-14T02:56:00;8.40;;;4.13;;
36923;SDS011;22841;50.252;18.688;2023-03-14T02:58:26;9.88;;;4.03;;
36923;SDS011;22841;50.252;18.688;2023-03-14T03:00:53;9.52;;;4.78;;
36923;SDS011;22841;50.252;18.688;2023-03-14T03:03:19;11.55;;;4.80;;
36923;SDS011;22841;50.252;18.688;2023-03-14T03:05:52;8.93;;;4.35;;
36923;SDS011;22841;50.252;18.688;2023-03-14T03:08:20;9.38;;;4.65;;
36923;SDS011;22841;50.252;18.688;2023-03-14T03:10:47;11.90;;;3.88;;
36923;SDS011;22841;50.252;18.688;2023-03-14T03:13:14;11.82;;;4.30;;
36923;SDS011;22841;50.252;18.688;2023-03-14T03:15:40;9.38;;;4.32;;
36923;SDS011;22841;50.252;18.688;2023-03-14T03:18:06;11.88;;;5.70;;
36923;SDS011;22841;50.252;18.688;2023-03-14T03:20:33;18.70;;;5.47;;
36923;SDS011;22841;50.252;18.688;2023-03-14T03:22:59;16.73;;;5.95;;
36923;SDS011;22841;50.252;18.688;2023-03-14T03:25:26;19.55;;;7.30;;
36923;SDS011;22841;50.252;18.688;2023-03-14T03:27:52;21.02;;;8.10;;
36923;SDS011;22841;50.252;18.688;2023-03-14T03:30:19;19.67;;;8.88;;
36923;SDS011;22841;50.252;18.688;2023-03-14T03:32:45;18.08;;;7.53;;
36923;SDS011;22841;50.252;18.688;2023-03-14T03:35:12;17.95;;;6.65;;
36923;SDS011;22841;50.252;18.688;2023-03-14T03:37:38;16.17;;;5.72;;
36923;SDS011;22841;50.252;18.688;2023-03-14T03:40:05;15.75;;;5.55;;
36923;SDS011;22841;50.252;18.688;2023-03-14T03:42:32;13.43;;;4.68;;
36923;SDS011;22841;50.252;18.688;2023-03-14T03:44:59;11.52;;;5.55;;
36923;SDS011;22841;50.252;18.688;2023-03-14T03:47:26;13.27;;;5.85;;
36923;SDS011;22841;50.252;18.688;2023-03-14T03:49:53;12.93;;;5.63;;
36923;SDS011;22841;50.252;18.688;2023-03-14T03:52:19;16.42;;;6.00;;
36923;SDS011;22841;50.252;18.688;2023-03-14T03:54:46;13.05;;;5.85;;
36923;SDS011;22841;50.252;18.688;2023-03-14T03:57:12;10.50;;;6.00;;
36923;SDS011;22841;50.252;18.688;2023-03-14T03:59:38;15.32;;;6.53;;
36923;SDS011;22841;50.252;18.688;2023-03-14T04:02:05;12.20;;;6.25;;
36923;SDS011;22841;50.252;18.688;2023-03-14T04:04:32;17.90;;;7.78;;
36923;SDS011;22841;50.252;18.688;2023-03-14T04:06:58;13.30;;;6.45;;
36923;SDS011;22841;50.252;18.688;2023-03-14T04:09:24;18.55;;;7.72;;
36923;SDS011;22841;50.252;18.688;2023-03-14T04:11:50;17.95;;;7.60;;
36923;SDS011;22841;50.252;18.688;2023-03-14T04:14:16;16.83;;;7.68;;
36923;SDS011;22841;50.252;18.688;2023-03-14T04:16:42;20.85;;;8.20;;
36923;SDS011;22841;50.252;18.688;2023-03-14T04:19:08;17.20;;;7.22;;
36923;SDS011;22841;50.252;18.688;2023-03-14T04:21:35;17.00;;;6.57;;
36923;SDS011;22841;50.252;18.688;2023-03-14T04:24:01;14.68;;;6.68;;
36923;SDS011;22841;50.252;18.688;2023-03-14T04:26:27;13.45;;;6.20;;
36923;SDS011;22841;50.252;18.688;2023-03-14T04:28:53;12.55;;;6.00;;
36923;SDS011;22841;50.252;18.688;2023-03-14T04:31:20;14.27;;;6.30;;
36923;SDS011;22841;50.252;18.688;2023-03-14T04:33:47;13.23;;;6.65;;
36923;SDS011;22841;50.252;18.688;2023-03-14T04:36:13;16.85;;;7.05;;
36923;SDS011;22841;50.252;18.688;2023-03-14T04:38:39;16.77;;;7.65;;
36923;SDS011;22841;50.252;18.688;2023-03-14T04:41:06;15.75;;;6.55;;
36923;SDS011;22841;50.252;18.688;2023-03-14T04:43:32;14.70;;;7.05;;
36923;SDS011;22841;50.252;18.688;2023-03-14T04:45:58;15.40;;;7.28;;
36923;SDS011;22841;50.252;18.688;2023-03-14T04:48:25;11.35;;;6.85;;
36923;SDS011;22841;50.252;18.688;2023-03-14T04:50:52;16.80;;;7.63;;
36923;SDS011;22841;50.252;18.688;2023-03-14T04:53:18;14.90;;;7.03;;
36923;SDS011;22841;50.252;18.688;2023-03-14T04:55:48;18.15;;;7.75;;
36923;SDS011;22841;50.252;18.688;2023-03-14T04:58:19;13.50;;;7.82;;
36923;SDS011;22841;50.252;18.688;2023-03-14T05:00:46;15.10;;;7.40;;
36923;SDS011;22841;50.252;18.688;2023-03-14T05:03:14;16.65;;;7.22;;
36923;SDS011;22841;50.252;18.688;2023-03-14T05:05:41;20.10;;;7.85;;
36923;SDS011;22841;50.252;18.688;2023-03-14T05:08:07;19.88;;;7.70;;
36923;SDS011;22841;50.252;18.688;2023-03-14T05:10:34;16.20;;;8.30;;
36923;SDS011;22841;50.252;18.688;2023-03-14T05:13:00;18.02;;;8.88;;
36923;SDS011;22841;50.252;18.688;2023-03-14T05:15:26;18.45;;;8.73;;
36923;SDS011;22841;50.252;18.688;2023-03-14T05:17:52;19.38;;;8.80;;
36923;SDS011;22841;50.252;18.688;2023-03-14T05:20:20;25.52;;;9.85;;
36923;SDS011;22841;50.252;18.688;2023-03-14T05:22:46;18.45;;;8.52;;
36923;SDS011;22841;50.252;18.688;2023-03-14T05:25:12;24.77;;;10.32;;
36923;SDS011;22841;50.252;18.688;2023-03-14T05:27:38;17.65;;;8.43;;
36923;SDS011;22841;50.252;18.688;2023-03-14T05:30:05;24.42;;;9.10;;
36923;SDS011;22841;50.252;18.688;2023-03-14T05:32:31;21.13;;;9.48;;
36923;SDS011;22841;50.252;18.688;2023-03-14T05:34:58;23.63;;;10.43;;
36923;SDS011;22841;50.252;18.688;2023-03-14T05:37:25;19.60;;;9.85;;
36923;SDS011;22841;50.252;18.688;2023-03-14T05:39:51;23.95;;;11.48;;
36923;SDS011;22841;50.252;18.688;2023-03-14T05:42:17;20.80;;;11.23;;
36923;SDS011;22841;50.252;18.688;2023-03-14T05:44:44;21.60;;;11.20;;
36923;SDS011;22841;50.252;18.688;2023-03-14T05:47:10;23.63;;;10.50;;
36923;SDS011;22841;50.252;18.688;2023-03-14T05:49:36;22.42;;;10.68;;
36923;SDS011;22841;50.252;18.688;2023-03-14T05:52:02;22.48;;;11.50;;
36923;SDS011;22841;50.252;18.688;2023-03-14T05:54:28;22.83;;;11.52;;
36923;SDS011;22841;50.252;18.688;2023-03-14T05:56:54;21.75;;;11.38;;
36923;SDS011;22841;50.252;18.688;2023-03-14T05:59:20;30.08;;;10.98;;
36923;SDS011;22841;50.252;18.688;2023-03-14T06:01:46;15.55;;;7.85;;
36923;SDS011;22841;50.252;18.688;2023-03-14T06:04:12;14.80;;;6.63;;
36923;SDS011;22841;50.252;18.688;2023-03-14T06:06:39;19.40;;;6.80;;
36923;SDS011;22841;50.252;18.688;2023-03-14T06:09:05;16.40;;;6.82;;
36923;SDS011;22841;50.252;18.688;2023-03-14T06:11:31;19.25;;;6.85;;
36923;SDS011;22841;50.252;18.688;2023-03-14T06:13:57;21.55;;;7.82;;
36923;SDS011;22841;50.252;18.688;2023-03-14T06:16:23;24.33;;;8.82;;
36923;SDS011;22841;50.252;18.688;2023-03-14T06:18:49;22.35;;;8.60;;
36923;SDS011;22841;50.252;18.688;2023-03-14T06:21:15;23.00;;;9.25;;
36923;SDS011;22841;50.252;18.688;2023-03-14T06:23:41;20.75;;;8.75;;
36923;SDS011;22841;50.252;18.688;2023-03-14T06:26:07;26.08;;;11.15;;
36923;SDS011;22841;50.252;18.688;2023-03-14T06:28:33;32.40;;;11.27;;
36923;SDS011;22841;50.252;18.688;2023-03-14T06:31:00;27.30;;;9.32;;
36923;SDS011;22841;50.252;18.688;2023-03-14T06:33:26;28.67;;;10.18;;
36923;SDS011;22841;50.252;18.688;2023-03-14T06:35:52;30.35;;;10.20;;
36923;SDS011;22841;50.252;18.688;2023-03-14T06:38:18;27.35;;;8.82;;
36923;SDS011;22841;50.252;18.688;2023-03-14T06:40:44;19.95;;;7.97;;
36923;SDS011;22841;50.252;18.688;2023-03-14T06:43:10;18.48;;;8.27;;
36923;SDS011;22841;50.252;18.688;2023-03-14T06:45:36;23.10;;;9.27;;
36923;SDS011;22841;50.252;18.688;2023-03-14T06:48:04;19.95;;;8.13;;
36923;SDS011;22841;50.252;18.688;2023-03-14T06:50:30;17.55;;;7.80;;
36923;SDS011;22841;50.252;18.688;2023-03-14T06:52:57;18.15;;;8.57;;
36923;SDS011;22841;50.252;18.688;2023-03-14T06:55:23;26.33;;;8.25;;
36923;SDS011;22841;50.252;18.688;2023-03-14T06:57:49;17.95;;;8.18;;
36923;SDS011;22841;50.252;18.688;2023-03-14T07:00:15;11.82;;;6.25;;
36923;SDS011;22841;50.252;18.688;2023-03-14T07:02:41;18.60;;;7.28;;
36923;SDS011;22841;50.252;18.688;2023-03-14T07:05:07;19.38;;;7.53;;
36923;SDS011;22841;50.252;18.688;2023-03-14T07:07:35;15.48;;;7.55;;
36923;SDS011;22841;50.252;18.688;2023-03-14T07:10:01;16.55;;;7.68;;
36923;SDS011;22841;50.252;18.688;2023-03-14T07:12:28;17.38;;;7.65;;
36923;SDS011;22841;50.252;18.688;2023-03-14T07:14:54;15.85;;;8.23;;
36923;SDS011;22841;50.252;18.688;2023-03-14T07:17:20;18.25;;;8.13;;
36923;SDS011;22841;50.252;18.688;2023-03-14T07:19:46;14.32;;;7.07;;
36923;SDS011;22841;50.252;18.688;2023-03-14T07:22:12;15.88;;;6.70;;
36923;SDS011;22841;50.252;18.688;2023-03-14T07:24:38;18.63;;;6.60;;
36923;SDS011;22841;50.252;18.688;2023-03-14T07:27:04;18.90;;;8.00;;
36923;SDS011;22841;50.252;18.688;2023-03-14T07:29:30;17.52;;;8.65;;
36923;SDS011;22841;50.252;18.688;2023-03-14T07:31:56;20.55;;;9.20;;
36923;SDS011;22841;50.252;18.688;2023-03-14T07:34:23;24.33;;;10.00;;
36923;SDS011;22841;50.252;18.688;2023-03-14T07:36:49;21.70;;;9.63;;
36923;SDS011;22841;50.252;18.688;2023-03-14T07:39:15;27.75;;;12.13;;
36923;SDS011;22841;50.252;18.688;2023-03-14T07:41:41;33.80;;;12.70;;
36923;SDS011;22841;50.252;18.688;2023-03-14T07:44:07;25.25;;;11.02;;
36923;SDS011;22841;50.252;18.688;2023-03-14T07:46:33;25.40;;;10.10;;
36923;SDS011;22841;50.252;18.688;2023-03-14T07:48:59;19.52;;;9.45;;
36923;SDS011;22841;50.252;18.688;2023-03-14T07:51:25;14.57;;;7.35;;
36923;SDS011;22841;50.252;18.688;2023-03-14T07:53:51;20.27;;;8.02;;
36923;SDS011;22841;50.252;18.688;2023-03-14T07:56:17;17.10;;;6.13;;
36923;SDS011;22841;50.252;18.688;2023-03-14T07:58:44;16.95;;;7.20;;
36923;SDS011;22841;50.252;18.688;2023-03-14T08:01:10;11.38;;;6.30;;
36923;SDS011;22841;50.252;18.688;2023-03-14T08:03:36;15.57;;;6.45;;
36923;SDS011;22841;50.252;18.688;2023-03-14T08:06:02;14.18;;;7.22;;
36923;SDS011;22841;50.252;18.688;2023-03-14T08:08:28;16.35;;;7.85;;
36923;SDS011;22841;50.252;18.688;2023-03-14T08:10:54;19.48;;;8.60;;
36923;SDS011;22841;50.252;18.688;2023-03-14T08:13:20;22.42;;;8.55;;
36923;SDS011;22841;50.252;18.688;2023-03-14T08:15:47;21.63;;;7.72;;
36923;SDS011;22841;50.252;18.688;2023-03-14T08:18:14;16.65;;;8.25;;
36923;SDS011;22841;50.252;18.688;2023-03-14T08:20:40;24.15;;;7.57;;
36923;SDS011;22841;50.252;18.688;2023-03-14T08:23:06;15.73;;;7.68;;
36923;SDS011;22841;50.252;18.688;2023-03-14T08:25:32;18.95;;;8.18;;
36923;SDS011;22841;50.252;18.688;2023-03-14T08:27:59;12.38;;;6.10;;
36923;SDS011;22841;50.252;18.688;2023-03-14T08:30:25;18.40;;;6.38;;
36923;SDS011;22841;50.252;18.688;2023-03-14T08:32:51;12.13;;;5.32;;
36923;SDS011;22841;50.252;18.688;2023-03-14T08:35:18;11.32;;;5.32;;
36923;SDS011;22841;50.252;18.688;2023-03-14T08:37:44;13.20;;;5.50;;
36923;SDS011;22841;50.252;18.688;2023-03-14T08:40:10;11.27;;;6.82;;
36923;SDS011;22841;50.252;18.688;2023-03-14T08:42:37;9.73;;;5.00;;
36923;SDS011;22841;50.252;18.688;2023-03-14T08:45:05;10.38;;;4.70;;
36923;SDS011;22841;50.252;18.688;2023-03-14T08:47:33;11.93;;;4.72;;
36923;SDS011;22841;50.252;18.688;2023-03-14T08:50:00;9.00;;;4.13;;
36923;SDS011;22841;50.252;18.688;2023-03-14T08:52:26;11.60;;;4.60;;
36923;SDS011;22841;50.252;18.688;2023-03-14T08:54:52;10.38;;;4.65;;
36923;SDS011;22841;50.252;18.688;2023-03-14T08:57:18;11.55;;;4.07;;
36923;SDS011;22841;50.252;18.688;2023-03-14T08:59:44;9.68;;;4.82;;
36923;SDS011;22841;50.252;18.688;2023-03-14T09:02:11;12.90;;;4.13;;
36923;SDS011;22841;50.252;18.688;2023-03-14T09:04:37;7.85;;;4.47;;
36923;SDS011;22841;50.252;18.688;2023-03-14T09:07:04;10.52;;;4.60;;
36923;SDS011;22841;50.252;18.688;2023-03-14T09:09:30;11.02;;;5.07;;
36923;SDS011;22841;50.252;18.688;2023-03-14T09:11:56;15.57;;;4.43;;
36923;SDS011;22841;50.252;18.688;2023-03-14T09:14:22;8.43;;;3.95;;
36923;SDS011;22841;50.252;18.688;2023-03-14T09:16:49;11.35;;;4.82;;
36923;SDS011;22841;50.252;18.688;2023-03-14T09:19:16;11.43;;;5.40;;
36923;SDS011;22841;50.252;18.688;2023-03-14T09:21:42;16.77;;;5.00;;
36923;SDS011;22841;50.252;18.688;2023-03-14T09:24:09;8.30;;;5.03;;
36923;SDS011;22841;50.252;18.688;2023-03-14T09:26:35;9.60;;;4.55;;
36923;SDS011;22841;50.252;18.688;2023-03-14T09:29:01;17.23;;;4.47;;
36923;SDS011;22841;50.252;18.688;2023-03-14T09:31:27;12.38;;;4.68;;
36923;SDS011;22841;50.252;18.688;2023-03-14T09:33:55;8.70;;;4.45;;
36923;SDS011;22841;50.252;18.688;2023-03-14T09:36:21;16.10;;;4.57;;
36923;SDS011;22841;50.252;18.688;2023-03-14T09:38:47;6.72;;;3.90;;
36923;SDS011;22841;50.252;18.688;2023-03-14T09:44:02;11.20;;;4.53;;
36923;SDS011;22841;50.252;18.688;2023-03-14T09:46:36;9.93;;;4.03;;
36923;SDS011;22841;50.252;18.688;2023-03-14T09:49:09;7.82;;;4.30;;
36923;SDS011;22841;50.252;18.688;2023-03-14T09:51:37;14.65;;;4.25;;
36923;SDS011;22841;50.252;18.688;2023-03-14T09:54:05;6.65;;;3.80;;
36923;SDS011;22841;50.252;18.688;2023-03-14T09:56:32;6.38;;;3.85;;
36923;SDS011;22841;50.252;18.688;2023-03-14T09:59:00;8.82;;;4.20;;
36923;SDS011;22841;50.252;18.688;2023-03-14T10:01:30;9.07;;;3.80;;
36923;SDS011;22841;50.252;18.688;2023-03-14T10:03:58;7.28;;;4.57;;
36923;SDS011;22841;50.252;18.688;2023-03-14T10:06:29;9.50;;;4.45;;
36923;SDS011;22841;50.252;18.688;2023-03-14T10:08:56;9.05;;;3.78;;
36923;SDS011;22841;50.252;18.688;2023-03-14T10:11:23;11.18;;;4.55;;
36923;SDS011;22841;50.252;18.688;2023-03-14T10:16:32;9.73;;;4.35;;
36923;SDS011;22841;50.252;18.688;2023-03-14T10:19:13;16.13;;;5.80;;
36923;SDS011;22841;50.252;18.688;2023-03-14T10:21:41;11.15;;;4.32;;
36923;SDS011;22841;50.252;18.688;2023-03-14T10:24:18;6.75;;;4.10;;
36923;SDS011;22841;50.252;18.688;2023-03-14T10:26:53;8.27;;;4.30;;
36923;SDS011;22841;50.252;18.688;2023-03-14T10:29:20;10.10;;;4.10;;
36923;SDS011;22841;50.252;18.688;2023-03-14T10:34:36;11.07;;;4.55;;
36923;SDS011;22841;50.252;18.688;2023-03-14T10:39:52;12.07;;;5.03;;
36923;SDS011;22841;50.252;18.688;2023-03-14T10:42:29;10.13;;;4.50;;
36923;SDS011;22841;50.252;18.688;2023-03-14T10:44:58;9.10;;;4.18;;
36923;SDS011;22841;50.252;18.688;2023-03-14T10:47:48;10.15;;;4.82;;
36923;SDS011;22841;50.252;18.688;2023-03-14T10:50:22;14.52;;;4.80;;
36923;SDS011;22841;50.252;18.688;2023-03-14T10:52:53;7.68;;;4.68;;
36923;SDS011;22841;50.252;18.688;2023-03-14T10:55:22;8.77;;;4.72;;
36923;SDS011;22841;50.252;18.688;2023-03-14T10:57:50;9.93;;;4.53;;
36923;SDS011;22841;50.252;18.688;2023-03-14T11:00:20;9.13;;;4.47;;
36923;SDS011;22841;50.252;18.688;2023-03-14T11:10:39;11.20;;;5.57;;
36923;SDS011;22841;50.252;18.688;2023-03-14T11:13:21;8.88;;;4.90;;
36923;SDS011;22841;50.252;18.688;2023-03-14T11:16:06;8.10;;;4.35;;
36923;SDS011;22841;50.252;18.688;2023-03-14T11:26:52;11.13;;;5.68;;
36923;SDS011;22841;50.252;18.688;2023-03-14T11:32:03;8.25;;;4.70;;
36923;SDS011;22841;50.252;18.688;2023-03-14T11:40:17;8.57;;;4.75;;
36923;SDS011;22841;50.252;18.688;2023-03-14T11:42:47;6.10;;;4.03;;
36923;SDS011;22841;50.252;18.688;2023-03-14T11:45:37;6.68;;;4.65;;
36923;SDS011;22841;50.252;18.688;2023-03-14T11:50:40;8.70;;;4.78;;
36923;SDS011;22841;50.252;18.688;2023-03-14T11:55:39;13.02;;;6.65;;
36923;SDS011;22841;50.252;18.688;2023-03-14T11:58:15;12.05;;;6.60;;
36923;SDS011;22841;50.252;18.688;2023-03-14T12:00:51;7.10;;;4.60;;
36923;SDS011;22841;50.252;18.688;2023-03-14T12:06:27;10.23;;;4.47;;
36923;SDS011;22841;50.252;18.688;2023-03-14T12:09:00;12.02;;;5.60;;
36923;SDS011;22841;50.252;18.688;2023-03-14T12:11:46;9.85;;;5.25;;
36923;SDS011;22841;50.252;18.688;2023-03-14T12:16:47;8.63;;;5.35;;
36923;SDS011;22841;50.252;18.688;2023-03-14T12:21:55;14.02;;;5.25;;
36923;SDS011;22841;50.252;18.688;2023-03-14T12:24:37;12.13;;;5.82;;
36923;SDS011;22841;50.252;18.688;2023-03-14T12:27:10;12.02;;;6.32;;
36923;SDS011;22841;50.252;18.688;2023-03-14T12:29:59;11.63;;;6.68;;
36923;SDS011;22841;50.252;18.688;2023-03-14T12:32:26;12.38;;;6.25;;
36923;SDS011;22841;50.252;18.688;2023-03-14T12:34:52;12.93;;;5.85;;
36923;SDS011;22841;50.252;18.688;2023-03-14T12:37:23;11.60;;;7.63;;
36923;SDS011;22841;50.252;18.688;2023-03-14T12:40:03;18.08;;;9.25;;
36923;SDS011;22841;50.252;18.688;2023-03-14T12:48:17;8.60;;;6.60;;
36923;SDS011;22841;50.252;18.688;2023-03-14T12:50:54;9.15;;;5.28;;
36923;SDS011;22841;50.252;18.688;2023-03-14T12:56:20;13.45;;;6.38;;
36923;SDS011;22841;50.252;18.688;2023-03-14T12:58:54;9.95;;;5.28;;
36923;SDS011;22841;50.252;18.688;2023-03-14T13:01:21;13.38;;;5.82;;
36923;SDS011;22841;50.252;18.688;2023-03-14T13:03:50;10.50;;;5.85;;
36923;SDS011;22841;50.252;18.688;2023-03-14T13:11:55;9.82;;;5.75;;
36923;SDS011;22841;50.252;18.688;2023-03-14T13:14:27;16.95;;;6.43;;
36923;SDS011;22841;50.252;18.688;2023-03-14T13:16:54;12.48;;;6.15;;
36923;SDS011;22841;50.252;18.688;2023-03-14T13:19:25;10.13;;;5.40;;
36923;SDS011;22841;50.252;18.688;2023-03-14T13:24:32;11.93;;;6.07;;
36923;SDS011;22841;50.252;18.688;2023-03-14T13:26:59;10.85;;;6.72;;
36923;SDS011;22841;50.252;18.688;2023-03-14T13:29:32;13.27;;;6.82;;
36923;SDS011;22841;50.252;18.688;2023-03-14T13:32:13;17.42;;;7.07;;
36923;SDS011;22841;50.252;18.688;2023-03-14T13:34:45;14.43;;;7.78;;
36923;SDS011;22841;50.252;18.688;2023-03-14T13:37:18;17.08;;;8.10;;
36923;SDS011;22841;50.252;18.688;2023-03-14T13:39:52;20.15;;;8.70;;
36923;SDS011;22841;50.252;18.688;2023-03-14T13:42:21;19.67;;;7.70;;
36923;SDS011;22841;50.252;18.688;2023-03-14T13:44:52;13.43;;;8.18;;
36923;SDS011;22841;50.252;18.688;2023-03-14T13:47:21;15.40;;;8.95;;
36923;SDS011;22841;50.252;18.688;2023-03-14T13:49:50;13.70;;;7.43;;
36923;SDS011;22841;50.252;18.688;2023-03-14T13:52:30;14.95;;;7.82;;
36923;SDS011;22841;50.252;18.688;2023-03-14T13:55:01;12.52;;;7.35;;
36923;SDS011;22841;50.252;18.688;2023-03-14T13:57:45;14.30;;;7.70;;
36923;SDS011;22841;50.252;18.688;2023-03-14T14:00:24;17.20;;;8.07;;
36923;SDS011;22841;50.252;18.688;2023-03-14T14:02:56;13.73;;;7.82;;
36923;SDS011;22841;50.252;18.688;2023-03-14T14:05:25;14.50;;;8.35;;
36923;SDS011;22841;50.252;18.688;2023-03-14T14:07:53;15.18;;;7.70;;
36923;SDS011;22841;50.252;18.688;2023-03-14T14:10:19;15.65;;;8.27;;
36923;SDS011;22841;50.252;18.688;2023-03-14T14:12:48;15.02;;;7.15;;
36923;SDS011;22841;50.252;18.688;2023-03-14T14:15:21;14.15;;;8.10;;
36923;SDS011;22841;50.252;18.688;2023-03-14T14:20:23;17.83;;;8.75;;
36923;SDS011;22841;50.252;18.688;2023-03-14T14:23:12;15.07;;;8.90;;
36923;SDS011;22841;50.252;18.688;2023-03-14T14:25:54;13.93;;;9.05;;
36923;SDS011;22841;50.252;18.688;2023-03-14T14:33:53;17.55;;;9.05;;
36923;SDS011;22841;50.252;18.688;2023-03-14T14:36:28;18.67;;;9.77;;
36923;SDS011;22841;50.252;18.688;2023-03-14T14:39:04;16.98;;;8.88;;
36923;SDS011;22841;50.252;18.688;2023-03-14T14:41:34;17.88;;;9.45;;
36923;SDS011;22841;50.252;18.688;2023-03-14T14:44:04;16.10;;;9.65;;
36923;SDS011;22841;50.252;18.688;2023-03-14T14:46:31;14.63;;;8.55;;
36923;SDS011;22841;50.252;18.688;2023-03-14T14:49:04;13.77;;;8.70;;
36923;SDS011;22841;50.252;18.688;2023-03-14T14:51:48;14.82;;;8.50;;
36923;SDS011;22841;50.252;18.688;2023-03-14T14:54:17;19.98;;;8.27;;
36923;SDS011;22841;50.252;18.688;2023-03-14T14:56:51;19.52;;;9.02;;
36923;SDS011;22841;50.252;18.688;2023-03-14T14:59:25;13.05;;;8.32;;
36923;SDS011;22841;50.252;18.688;2023-03-14T15:01:58;17.77;;;8.02;;
36923;SDS011;22841;50.252;18.688;2023-03-14T15:04:31;14.32;;;8.77;;
36923;SDS011;22841;50.252;18.688;2023-03-14T15:06:57;14.38;;;8.45;;
36923;SDS011;22841;50.252;18.688;2023-03-14T15:09:24;16.65;;;8.88;;
36923;SDS011;22841;50.252;18.688;2023-03-14T15:11:50;16.67;;;9.15;;
36923;SDS011;22841;50.252;18.688;2023-03-14T15:14:16;14.52;;;7.90;;
36923;SDS011;22841;50.252;18.688;2023-03-14T15:16:42;15.23;;;8.50;;
36923;SDS011;22841;50.252;18.688;2023-03-14T15:19:19;18.02;;;9.93;;
36923;SDS011;22841;50.252;18.688;2023-03-14T15:21:48;13.05;;;8.50;;
36923;SDS011;22841;50.252;18.688;2023-03-14T15:24:15;12.43;;;7.50;;
36923;SDS011;22841;50.252;18.688;2023-03-14T15:26:41;17.77;;;9.35;;
36923;SDS011;22841;50.252;18.688;2023-03-14T15:29:10;16.63;;;8.52;;
36923;SDS011;22841;50.252;18.688;2023-03-14T15:31:38;18.88;;;9.43;;
36923;SDS011;22841;50.252;18.688;2023-03-14T15:34:05;16.42;;;8.68;;
36923;SDS011;22841;50.252;18.688;2023-03-14T15:36:32;16.55;;;8.90;;
36923;SDS011;22841;50.252;18.688;2023-03-14T15:38:59;14.48;;;8.60;;
36923;SDS011;22841;50.252;18.688;2023-03-14T15:41:26;16.08;;;10.23;;
36923;SDS011;22841;50.252;18.688;2023-03-14T15:43:53;17.55;;;10.50;;
36923;SDS011;22841;50.252;18.688;2023-03-14T15:46:19;14.07;;;8.00;;
36923;SDS011;22841;50.252;18.688;2023-03-14T15:48:48;11.10;;;5.68;;
36923;SDS011;22841;50.252;18.688;2023-03-14T15:51:15;9.60;;;6.38;;
36923;SDS011;22841;50.252;18.688;2023-03-14T15:53:42;11.30;;;6.18;;
36923;SDS011;22841;50.252;18.688;2023-03-14T15:56:11;12.02;;;6.70;;